Max Planck — ELZY8 — position and weather

sailwx.info

Track history (hours):
 
Tides and Currents Weather Stations Pressure Air Temp Water Temp Dewpoint Dewpoint Depression Visibility Wind Speed Wind Dir Waves Ship Positions

Max Planck

Last reported at 2014-Oct-19 14:07 UTC. Time now 2014-Oct-22 15:35 UTC.
Position N 30°47' E 123°22'.

Length 99.9 m; beam 16.2 m; draft 6.8 m.

Type: Ship (hazmat cat D). MMSI: 636091773.

Date/timePositionNaut miles runAvg speedWind from/ knotsBaromVisibWave heightAir tempDewpointWater temp
2014-Oct-19 14:07N 30°47' E 123°22'610.5
2014-Oct-19 13:33N 30°46' E 123°16'1110.2
2014-Oct-19 12:28N 30°50' E 123°04'1010.4
2014-Oct-19 11:33N 30°51' E 122°52'9 8.9
2014-Oct-19 10:33N 30°53' E 122°42'10 9.5
2014-Oct-19 09:31N 30°53' E 122°31'9 9.8
2014-Oct-19 08:33N 30°50' E 122°21'10 9.7
2014-Oct-19 07:33N 30°41' E 122°15'1010.0
2014-Oct-19 06:33N 30°32' E 122°10'1211.6
2014-Oct-19 05:33N 30°31' E 121°57'2711.8
2014-Oct-19 03:18N 30°32' E 121°26'11 0.4
2014-Oct-17 23:11N 30°35' E 121°13'28 7.3
2014-Oct-17 19:17N 30°30' E 121°46'910.6
2014-Oct-17 18:29N 30°31' E 121°56'1010.3
2014-Oct-17 17:29N 30°33' E 122°07'8 8.0
2014-Oct-17 16:29N 30°39' E 122°13'910.1
2014-Oct-17 15:33N 30°47' E 122°17'  
2014-Oct-11 02:27N 35°04' E 139°41'5 6.1
2014-Oct-11 01:33N 35°09' E 139°45'1010.6
2014-Oct-11 00:33N 35°19' E 139°43'10 9.6
2014-Oct-10 23:34N 35°28' E 139°48'1210.6
2014-Oct-10 22:24N 35°32' E 140°02'1 0.1
2014-Oct-10 12:06N 35°32' E 140°03'3 0.5
2014-Oct-10 05:32N 35°33' E 139°59'2 1.7
2014-Oct-10 04:33N 35°34' E 139°58'0 0.0
2014-Oct-10 03:31N 35°34' E 139°58'0 0.0
2014-Oct-10 02:33N 35°34' E 139°58'0 0.0
2014-Oct-10 01:33N 35°34' E 139°58'0 0.0
2014-Oct-10 00:23N 35°34' E 139°58'0 0.0
2014-Oct-09 22:20N 35°34' E 139°58'0 0.0
2014-Oct-09 21:33N 35°34' E 139°58'0 0.0
2014-Oct-09 20:32N 35°34' E 139°58'0 0.0
2014-Oct-09 19:34N 35°34' E 139°58'0 0.0
2014-Oct-09 18:30N 35°34' E 139°58'0 0.0
2014-Oct-09 17:34N 35°34' E 139°58'0 0.0
2014-Oct-09 14:31N 35°34' E 139°58'  
Track history (hours):
 
Tides and Currents Weather Stations Pressure Air Temp Water Temp Dewpoint Dewpoint Depression Visibility Wind Speed Wind Dir Waves Ship Positions

Max Planck

Last reported at 2014-Oct-19 14:07 UTC. Time now 2014-Oct-22 15:35 UTC.
Position N 30°47' E 123°22'.

Length 99.9 m; beam 16.2 m; draft 6.8 m.

Type: Ship (hazmat cat D). MMSI: 636091773.

Date/timePositionNaut miles runAvg speedWind from/ knotsBaromVisibWave heightAir tempDewpointWater temp
2014-Oct-19 14:07N 30°47' E 123°22'610.5
2014-Oct-19 13:33N 30°46' E 123°16'1110.2
2014-Oct-19 12:28N 30°50' E 123°04'1010.4
2014-Oct-19 11:33N 30°51' E 122°52'9 8.9
2014-Oct-19 10:33N 30°53' E 122°42'10 9.5
2014-Oct-19 09:31N 30°53' E 122°31'9 9.8
2014-Oct-19 08:33N 30°50' E 122°21'10 9.7
2014-Oct-19 07:33N 30°41' E 122°15'1010.0
2014-Oct-19 06:33N 30°32' E 122°10'1211.6
2014-Oct-19 05:33N 30°31' E 121°57'2711.8
2014-Oct-19 03:18N 30°32' E 121°26'11 0.4
2014-Oct-17 23:11N 30°35' E 121°13'28 7.3
2014-Oct-17 19:17N 30°30' E 121°46'910.6
2014-Oct-17 18:29N 30°31' E 121°56'1010.3
2014-Oct-17 17:29N 30°33' E 122°07'8 8.0
2014-Oct-17 16:29N 30°39' E 122°13'910.1
2014-Oct-17 15:33N 30°47' E 122°17'  
2014-Oct-11 02:27N 35°04' E 139°41'5 6.1
2014-Oct-11 01:33N 35°09' E 139°45'1010.6
2014-Oct-11 00:33N 35°19' E 139°43'10 9.6
2014-Oct-10 23:34N 35°28' E 139°48'1210.6
2014-Oct-10 22:24N 35°32' E 140°02'1 0.1
2014-Oct-10 12:06N 35°32' E 140°03'3 0.5
2014-Oct-10 05:32N 35°33' E 139°59'2 1.7
2014-Oct-10 04:33N 35°34' E 139°58'0 0.0
2014-Oct-10 03:31N 35°34' E 139°58'0 0.0
2014-Oct-10 02:33N 35°34' E 139°58'0 0.0
2014-Oct-10 01:33N 35°34' E 139°58'0 0.0
2014-Oct-10 00:23N 35°34' E 139°58'0 0.0
2014-Oct-09 22:20N 35°34' E 139°58'0 0.0
2014-Oct-09 21:33N 35°34' E 139°58'0 0.0
2014-Oct-09 20:32N 35°34' E 139°58'0 0.0
2014-Oct-09 19:34N 35°34' E 139°58'0 0.0
2014-Oct-09 18:30N 35°34' E 139°58'0 0.0
2014-Oct-09 17:34N 35°34' E 139°58'0 0.0
2014-Oct-09 14:31N 35°34' E 139°58'  

Dump ship's entire track history